createdAt,value
2022-07-29T00:02:47.610Z,100437.28
2022-07-29T00:05:49.598Z,100443.50
2022-07-29T00:08:51.452Z,100443.63
2022-07-29T00:15:09.866Z,100427.13
2022-07-29T00:18:11.903Z,100435.31
2022-07-29T00:21:13.957Z,100435.56
2022-07-29T00:24:16.236Z,100433.72
2022-07-29T00:27:21.038Z,100430.41
2022-07-29T00:30:24.158Z,100420.69
2022-07-29T00:33:26.016Z,100418.75
2022-07-29T00:36:27.995Z,100422.47
2022-07-29T00:39:30.398Z,100420.81
2022-07-29T00:42:32.384Z,100419.16
2022-07-29T00:45:34.555Z,100426.00
2022-07-29T00:48:36.665Z,100416.34
2022-07-29T00:51:40.230Z,100422.47
2022-07-29T00:54:44.450Z,100413.84
2022-07-29T00:57:47.245Z,100415.44
2022-07-29T01:00:50.100Z,100423.44
2022-07-29T01:03:51.985Z,100423.53
2022-07-29T01:06:55.511Z,100427.19
2022-07-29T01:10:00.099Z,100415.81
2022-07-29T01:13:03.229Z,100411.28
2022-07-29T01:16:19.274Z,100417.31
2022-07-29T01:19:40.274Z,100403.56
2022-07-29T01:23:01.033Z,100399.87
2022-07-29T01:26:31.317Z,100405.31
2022-07-29T01:29:42.425Z,100399.87
2022-07-29T01:32:51.428Z,100404.25
2022-07-29T01:35:53.432Z,100401.84
2022-07-29T01:39:10.029Z,100406.31
2022-07-29T01:42:22.095Z,100402.31
2022-07-29T01:45:46.316Z,100403.03
2022-07-29T01:49:02.696Z,100396.00
2022-07-29T01:52:14.350Z,100399.91
2022-07-29T01:55:26.200Z,100395.66
2022-07-29T01:58:30.491Z,100402.06
2022-07-29T02:01:34.190Z,100407.16
2022-07-29T02:04:37.728Z,100405.12
2022-07-29T02:07:43.367Z,100402.97
2022-07-29T02:10:46.785Z,100406.84
2022-07-29T02:13:51.548Z,100396.75
2022-07-29T02:17:04.326Z,100401.25
2022-07-29T02:20:07.454Z,100403.94
2022-07-29T02:23:12.790Z,100405.72
2022-07-29T02:26:15.559Z,100412.81
2022-07-29T02:29:19.892Z,100411.03
2022-07-29T02:32:23.840Z,100411.22
2022-07-29T02:35:26.952Z,100427.13
2022-07-29T02:38:48.497Z,100406.81
2022-07-29T02:42:08.303Z,100410.28
2022-07-29T02:45:10.968Z,100412.22
2022-07-29T02:48:17.567Z,100404.25
2022-07-29T02:51:41.435Z,100407.00
2022-07-29T02:55:17.989Z,100406.00
2022-07-29T02:58:30.363Z,100405.94
2022-07-29T03:01:36.605Z,100403.34
2022-07-29T03:04:42.835Z,100401.59
2022-07-29T03:07:47.640Z,100415.78
2022-07-29T03:10:53.195Z,100398.00
2022-07-29T03:13:55.911Z,100410.50
2022-07-29T03:16:58.789Z,100404.44
2022-07-29T03:20:01.123Z,100410.53
2022-07-29T03:23:03.269Z,100406.19
2022-07-29T03:26:05.186Z,100408.88
2022-07-29T03:29:07.115Z,100409.75
2022-07-29T03:32:09.500Z,100395.31
2022-07-29T03:35:12.537Z,100404.81
2022-07-29T03:38:14.439Z,100391.41
2022-07-29T03:41:17.942Z,100401.91
2022-07-29T03:44:27.201Z,100402.72
2022-07-29T03:47:36.834Z,100405.34
2022-07-29T03:50:53.386Z,100407.03
2022-07-29T03:53:55.312Z,100409.16
2022-07-29T03:57:01.111Z,100406.56
2022-07-29T04:00:05.941Z,100407.13
2022-07-29T04:03:11.666Z,100408.16
2022-07-29T04:06:14.076Z,100409.09
2022-07-29T04:09:16.129Z,100411.78
2022-07-29T04:12:17.945Z,100418.75
2022-07-29T04:15:20.200Z,100410.91
2022-07-29T04:18:22.104Z,100412.94
2022-07-29T04:21:24.132Z,100427.88
2022-07-29T04:24:26.259Z,100421.78
2022-07-29T04:27:28.340Z,100420.72
2022-07-29T04:30:31.852Z,100414.19
2022-07-29T04:33:33.725Z,100402.44
2022-07-29T04:36:35.862Z,100405.84
2022-07-29T04:39:37.731Z,100402.16
2022-07-29T04:42:46.793Z,100413.63
2022-07-29T04:45:49.614Z,100413.03
2022-07-29T04:48:51.547Z,100410.50
2022-07-29T04:51:54.593Z,100412.00
2022-07-29T04:54:56.313Z,100410.91
2022-07-29T04:57:58.044Z,100408.25
2022-07-29T05:01:00.618Z,100416.03
2022-07-29T05:04:02.588Z,100410.72
2022-07-29T05:07:05.292Z,100423.63
2022-07-29T05:10:07.367Z,100428.84
2022-07-29T05:13:09.232Z,100427.84
2022-07-29T05:16:11.209Z,100431.91
2022-07-29T05:19:14.693Z,100431.41
2022-07-29T05:22:16.563Z,100430.03
2022-07-29T05:25:44.396Z,100431.75
2022-07-29T05:28:46.815Z,100432.50
2022-07-29T05:31:48.632Z,100441.84
2022-07-29T05:34:51.815Z,100433.59
2022-07-29T05:37:53.988Z,100437.72
2022-07-29T05:40:58.573Z,100438.31
2022-07-29T05:44:00.551Z,100431.75
2022-07-29T05:47:02.463Z,100438.00
2022-07-29T05:50:05.613Z,100441.66
2022-07-29T05:53:19.844Z,100433.75
2022-07-29T05:56:22.584Z,100439.66
2022-07-29T05:59:30.432Z,100433.66
2022-07-29T06:02:32.528Z,100436.75
2022-07-29T06:05:34.436Z,100437.09
2022-07-29T06:08:37.556Z,100433.22
2022-07-29T06:11:39.220Z,100428.69
2022-07-29T06:14:41.189Z,100429.94
2022-07-29T06:18:00.385Z,100424.28
2022-07-29T06:21:09.724Z,100421.41
2022-07-29T06:24:15.632Z,100425.78
2022-07-29T06:27:17.598Z,100422.34
2022-07-29T06:30:19.571Z,100424.41
2022-07-29T06:33:21.566Z,100431.34
2022-07-29T06:36:23.557Z,100425.59
2022-07-29T06:39:26.905Z,100426.87
2022-07-29T06:42:28.569Z,100432.53
2022-07-29T06:45:30.444Z,100429.44
2022-07-29T06:48:33.329Z,100431.88
2022-07-29T06:51:35.255Z,100436.22
2022-07-29T06:54:36.918Z,100432.56
2022-07-29T06:57:38.838Z,100437.28
2022-07-29T07:00:43.866Z,100437.09
2022-07-29T07:03:46.709Z,100426.34
2022-07-29T07:06:48.616Z,100431.66
2022-07-29T07:09:50.518Z,100439.31
2022-07-29T07:12:52.660Z,100434.41
2022-07-29T07:15:54.674Z,100434.28
2022-07-29T07:18:56.478Z,100443.13
2022-07-29T07:21:58.280Z,100440.28
2022-07-29T07:25:00.115Z,100434.59
2022-07-29T07:28:05.197Z,100438.25
2022-07-29T07:31:07.174Z,100427.81
2022-07-29T07:34:09.226Z,100428.88
2022-07-29T07:37:11.179Z,100432.16
2022-07-29T07:40:13.915Z,100436.84
2022-07-29T07:43:20.876Z,100429.41
2022-07-29T07:46:23.151Z,100431.44
2022-07-29T07:49:25.242Z,100425.97
2022-07-29T07:52:27.287Z,100432.28
2022-07-29T07:55:30.708Z,100423.81
2022-07-29T07:58:37.313Z,100422.66
2022-07-29T08:01:48.112Z,100432.25
2022-07-29T08:04:57.671Z,100418.84
2022-07-29T08:07:59.696Z,100424.50
2022-07-29T08:11:06.931Z,100430.22
2022-07-29T08:14:11.231Z,100426.31
2022-07-29T08:17:15.806Z,100424.31
2022-07-29T08:20:17.760Z,100423.72
2022-07-29T08:23:20.197Z,100430.69
2022-07-29T08:26:23.652Z,100419.66
2022-07-29T08:29:25.554Z,100421.25
2022-07-29T08:32:51.231Z,100419.00
2022-07-29T08:35:51.584Z,100424.88
2022-07-29T08:38:53.763Z,100428.22
2022-07-29T08:41:57.285Z,100421.00
2022-07-29T08:45:00.013Z,100427.94
2022-07-29T08:48:01.987Z,100430.22
2022-07-29T08:51:04.677Z,100417.19
2022-07-29T08:54:09.226Z,100426.22
2022-07-29T08:57:15.339Z,100416.69
2022-07-29T09:00:19.241Z,100412.66
2022-07-29T09:03:24.380Z,100407.72
2022-07-29T09:06:32.423Z,100416.53
2022-07-29T09:09:35.485Z,100415.53
2022-07-29T09:12:38.200Z,100417.41
2022-07-29T09:15:40.377Z,100407.38
2022-07-29T09:18:44.549Z,100407.19
2022-07-29T09:21:58.867Z,100402.09
2022-07-29T09:25:00.899Z,100397.75
2022-07-29T09:28:14.297Z,100407.66
2022-07-29T09:31:16.256Z,100393.59
2022-07-29T09:34:25.664Z,100390.34
2022-07-29T09:37:29.622Z,100396.28
2022-07-29T09:40:32.460Z,100391.38
2022-07-29T09:43:35.440Z,100389.13
2022-07-29T09:46:37.524Z,100384.53
2022-07-29T09:50:00.585Z,100386.53
2022-07-29T09:53:02.628Z,100376.34
2022-07-29T09:56:07.557Z,100373.28
2022-07-29T09:59:12.334Z,100379.78
2022-07-29T10:02:20.298Z,100378.91
2022-07-29T10:05:36.299Z,100378.72
2022-07-29T10:08:42.794Z,100374.12
2022-07-29T10:12:07.221Z,100361.88
2022-07-29T10:15:09.301Z,100364.09
2022-07-29T10:18:12.953Z,100367.28
2022-07-29T10:21:35.022Z,100365.03
2022-07-29T10:24:38.496Z,100351.88
2022-07-29T10:27:40.953Z,100354.94
2022-07-29T10:30:44.591Z,100355.44
2022-07-29T10:34:06.037Z,100354.59
2022-07-29T10:37:23.949Z,100351.00
2022-07-29T10:41:10.606Z,100348.13
2022-07-29T10:44:23.143Z,100353.84
2022-07-29T10:47:27.182Z,100342.31
2022-07-29T10:50:29.076Z,100325.50
2022-07-29T10:53:48.926Z,100329.88
2022-07-29T10:56:50.936Z,100316.38
2022-07-29T11:00:09.896Z,100315.84
2022-07-29T11:03:50.826Z,100324.78
2022-07-29T11:07:06.962Z,100316.31
2022-07-29T11:10:15.318Z,100314.66
2022-07-29T11:13:49.018Z,100308.59
2022-07-29T11:17:06.713Z,100302.41
2022-07-29T11:20:41.414Z,100309.13
2022-07-29T11:23:45.311Z,100307.94
2022-07-29T11:27:40.749Z,100301.94
2022-07-29T11:30:50.141Z,100296.84
2022-07-29T11:33:55.752Z,100297.31
2022-07-29T11:37:08.177Z,100295.38
2022-07-29T11:40:13.490Z,100296.97
2022-07-29T11:43:53.845Z,100287.78
2022-07-29T11:46:55.774Z,100295.09
2022-07-29T11:49:59.946Z,100278.88
2022-07-29T11:53:08.791Z,100281.88
2022-07-29T11:59:42.684Z,100280.97
2022-07-29T12:02:48.529Z,100282.62
2022-07-29T12:05:51.964Z,100278.31
2022-07-29T12:08:53.947Z,100270.09
2022-07-29T12:12:04.919Z,100271.13
2022-07-29T12:15:25.084Z,100267.91
2022-07-29T12:18:57.653Z,100265.66
2022-07-29T12:22:02.217Z,100265.31
2022-07-29T12:25:31.861Z,100257.69
2022-07-29T12:28:28.586Z,100250.00
2022-07-29T12:31:44.078Z,100254.16
2022-07-29T12:34:54.500Z,100248.09
2022-07-29T12:37:56.488Z,100250.53
2022-07-29T12:40:58.755Z,100241.34
2022-07-29T12:44:00.578Z,100234.06
2022-07-29T12:47:05.931Z,100235.44
2022-07-29T12:50:15.350Z,100226.53
2022-07-29T12:53:17.755Z,100227.16
2022-07-29T12:56:41.699Z,100225.88
2022-07-29T12:59:42.645Z,100220.09
2022-07-29T13:02:55.124Z,100210.59
2022-07-29T13:05:59.224Z,100209.78
2022-07-29T13:09:23.844Z,100206.66
2022-07-29T13:12:25.657Z,100200.00
2022-07-29T13:15:27.699Z,100200.94
2022-07-29T13:18:37.055Z,100199.31
2022-07-29T13:21:40.340Z,100190.78
2022-07-29T13:24:55.751Z,100202.47
2022-07-29T13:27:57.860Z,100192.28
2022-07-29T13:30:59.823Z,100199.97
2022-07-29T13:34:01.841Z,100195.63
2022-07-29T13:37:03.761Z,100199.59
2022-07-29T13:40:08.011Z,100183.56
2022-07-29T13:43:13.295Z,100176.31
2022-07-29T13:46:15.174Z,100178.47
2022-07-29T13:49:17.225Z,100168.44
2022-07-29T13:52:19.128Z,100166.63
2022-07-29T13:55:20.897Z,100170.84
2022-07-29T13:58:22.984Z,100166.69
2022-07-29T14:01:25.652Z,100164.66
2022-07-29T14:04:27.606Z,100163.81
2022-07-29T14:07:29.384Z,100164.47
2022-07-29T14:10:31.230Z,100167.22
2022-07-29T14:13:33.212Z,100169.03
2022-07-29T14:16:38.093Z,100160.31
2022-07-29T14:19:44.054Z,100153.91
2022-07-29T14:22:45.942Z,100144.63
2022-07-29T14:25:49.543Z,100148.25
2022-07-29T14:28:52.476Z,100139.25
2022-07-29T14:31:54.383Z,100143.22
2022-07-29T14:34:56.084Z,100133.75
2022-07-29T14:37:58.446Z,100138.44
2022-07-29T14:41:00.186Z,100131.03
2022-07-29T14:44:02.694Z,100133.84
2022-07-29T14:47:07.684Z,100130.91
2022-07-29T14:50:10.848Z,100127.84
2022-07-29T14:53:14.147Z,100131.22
2022-07-29T14:56:35.977Z,100121.91
2022-07-29T14:59:37.858Z,100118.59
2022-07-29T15:03:00.517Z,100104.50
2022-07-29T15:06:01.581Z,100104.34
2022-07-29T15:09:03.670Z,100107.72
2022-07-29T15:12:05.992Z,100098.56
2022-07-29T15:15:08.487Z,100113.25
2022-07-29T15:18:10.438Z,100095.78
2022-07-29T15:21:12.432Z,100094.87
2022-07-29T15:24:14.355Z,100089.66
2022-07-29T15:27:16.146Z,100089.88
2022-07-29T15:30:33.517Z,100077.16
2022-07-29T15:33:37.232Z,100076.81
2022-07-29T15:36:54.581Z,100073.50
2022-07-29T15:40:00.019Z,100067.91
2022-07-29T15:43:06.772Z,100071.41
2022-07-29T15:46:27.627Z,100068.09
2022-07-29T15:49:46.639Z,100061.56
2022-07-29T15:52:50.766Z,100074.87
2022-07-29T15:55:52.850Z,100062.12
2022-07-29T15:58:54.814Z,100063.44
2022-07-29T16:01:57.072Z,100061.22
2022-07-29T16:04:59.983Z,100068.63
2022-07-29T16:08:01.774Z,100061.09
2022-07-29T16:11:03.636Z,100050.63
2022-07-29T16:14:06.050Z,100053.78
2022-07-29T16:17:14.465Z,100060.31
2022-07-29T16:20:17.284Z,100065.94
2022-07-29T16:23:18.973Z,100060.66
2022-07-29T16:26:20.994Z,100057.47
2022-07-29T16:29:22.858Z,100058.22
2022-07-29T16:32:24.860Z,100069.03
2022-07-29T16:35:39.218Z,100067.78
2022-07-29T16:38:46.989Z,100065.81
2022-07-29T16:41:50.589Z,100072.00
2022-07-29T16:44:52.506Z,100074.47
2022-07-29T16:48:00.225Z,100077.69
2022-07-29T16:51:04.975Z,100072.94
2022-07-29T16:54:08.954Z,100069.94
2022-07-29T16:57:11.876Z,100062.94
2022-07-29T17:00:15.514Z,100063.13
2022-07-29T17:03:17.172Z,100065.47
2022-07-29T17:06:19.059Z,100065.69
2022-07-29T17:09:21.192Z,100064.37
2022-07-29T17:12:23.146Z,100064.09
2022-07-29T17:15:24.859Z,100068.22
2022-07-29T17:18:26.804Z,100067.78
2022-07-29T17:21:28.652Z,100073.41
2022-07-29T17:24:30.824Z,100074.03
2022-07-29T17:27:33.141Z,100072.75
2022-07-29T17:30:35.088Z,100072.31
2022-07-29T17:33:37.088Z,100074.81
2022-07-29T17:36:39.041Z,100073.56
2022-07-29T17:39:42.773Z,100068.22
2022-07-29T17:42:44.643Z,100066.09
2022-07-29T17:45:49.949Z,100067.28
2022-07-29T17:48:53.508Z,100065.53
2022-07-29T17:51:59.038Z,100067.78
2022-07-29T17:55:02.727Z,100068.06
2022-07-29T17:58:09.031Z,100063.75
2022-07-29T18:01:10.977Z,100063.59
2022-07-29T18:04:13.116Z,100062.91
2022-07-29T18:07:15.007Z,100066.25
2022-07-29T18:10:16.901Z,100072.69
2022-07-29T18:13:19.319Z,100073.59
2022-07-29T18:16:21.153Z,100080.69
2022-07-29T18:19:25.138Z,100081.34
2022-07-29T18:22:27.091Z,100087.13
2022-07-29T18:25:29.674Z,100091.87
2022-07-29T18:28:32.820Z,100092.66
2022-07-29T18:31:34.730Z,100085.72
2022-07-29T18:34:36.571Z,100088.16
2022-07-29T18:38:02.069Z,100098.41
2022-07-29T18:41:00.714Z,100104.41
2022-07-29T18:44:02.670Z,100116.59
2022-07-29T18:47:06.645Z,100119.09
2022-07-29T18:50:13.583Z,100122.03
2022-07-29T18:53:15.554Z,100124.87
2022-07-29T18:56:17.479Z,100122.97
2022-07-29T18:59:21.753Z,100131.34
2022-07-29T19:02:23.866Z,100129.16
2022-07-29T19:05:28.918Z,100135.22
2022-07-29T19:08:31.778Z,100138.75
2022-07-29T19:11:33.671Z,100136.19
2022-07-29T19:14:35.784Z,100148.00
2022-07-29T19:17:38.874Z,100149.25
2022-07-29T19:20:42.051Z,100143.84
2022-07-29T19:24:05.821Z,100136.28
2022-07-29T19:27:06.006Z,100149.19
2022-07-29T19:30:09.559Z,100146.59
2022-07-29T19:33:12.966Z,100153.03
2022-07-29T19:36:15.046Z,100153.25
2022-07-29T19:39:17.986Z,100149.72
2022-07-29T19:42:35.270Z,100146.47
2022-07-29T19:45:37.287Z,100150.41
2022-07-29T19:48:39.260Z,100152.69
2022-07-29T19:51:41.764Z,100144.88
2022-07-29T19:54:43.466Z,100141.47
2022-07-29T19:57:49.132Z,100142.63
2022-07-29T20:00:51.223Z,100145.84
2022-07-29T20:03:54.160Z,100141.66
2022-07-29T20:07:01.713Z,100134.06
2022-07-29T20:10:05.341Z,100136.28
2022-07-29T20:13:07.356Z,100137.06
2022-07-29T20:16:09.431Z,100130.25
2022-07-29T20:19:12.128Z,100125.03
2022-07-29T20:22:14.681Z,100123.34
2022-07-29T20:25:23.973Z,100118.53
2022-07-29T20:28:25.951Z,100128.09
2022-07-29T20:31:28.081Z,100135.94
2022-07-29T20:34:30.080Z,100131.09
2022-07-29T20:37:32.814Z,100131.09
2022-07-29T20:40:55.799Z,100131.38
2022-07-29T20:43:57.463Z,100134.91
2022-07-29T20:46:59.576Z,100134.56
2022-07-29T20:50:01.392Z,100139.31
2022-07-29T20:53:04.199Z,100138.63
2022-07-29T20:56:10.152Z,100135.00
2022-07-29T21:02:28.035Z,100142.03
2022-07-29T21:05:30.240Z,100141.53
2022-07-29T21:08:32.402Z,100142.84
2022-07-29T21:11:44.038Z,100139.78
2022-07-29T21:14:48.214Z,100133.59
2022-07-29T21:17:52.273Z,100129.44
2022-07-29T21:20:55.346Z,100147.34
2022-07-29T21:23:57.392Z,100149.22
2022-07-29T21:27:21.035Z,100140.19
2022-07-29T21:30:23.369Z,100137.00
2022-07-29T21:33:28.197Z,100136.72
2022-07-29T21:39:51.890Z,100149.19
2022-07-29T21:42:54.774Z,100142.66
2022-07-29T21:45:57.912Z,100146.66
2022-07-29T21:48:59.849Z,100151.34
2022-07-29T21:52:01.796Z,100158.16
2022-07-29T21:55:03.724Z,100165.81
2022-07-29T21:58:06.372Z,100171.19
2022-07-29T22:01:08.421Z,100181.50
2022-07-29T22:04:10.311Z,100196.16
2022-07-29T22:07:12.379Z,100201.72
2022-07-29T22:10:15.977Z,100197.75
2022-07-29T22:13:17.675Z,100209.38
2022-07-29T22:16:20.674Z,100207.03
2022-07-29T22:19:22.403Z,100204.91
2022-07-29T22:22:29.267Z,100222.19
2022-07-29T22:25:31.357Z,100222.53
2022-07-29T22:28:33.455Z,100226.31
2022-07-29T22:31:35.451Z,100240.13
2022-07-29T22:34:37.997Z,100229.72
2022-07-29T22:37:44.080Z,100220.84
2022-07-29T22:40:47.002Z,100220.97
2022-07-29T22:43:51.455Z,100217.19
2022-07-29T22:47:00.677Z,100205.34
2022-07-29T22:50:02.800Z,100214.13
2022-07-29T22:53:04.675Z,100209.16
2022-07-29T22:56:06.604Z,100217.63
2022-07-29T22:59:08.614Z,100216.16
2022-07-29T23:02:10.565Z,100212.25
2022-07-29T23:05:12.621Z,100206.84
2022-07-29T23:08:14.660Z,100198.72
2022-07-29T23:11:16.951Z,100199.50
2022-07-29T23:14:18.999Z,100192.06
2022-07-29T23:17:21.011Z,100196.09
2022-07-29T23:20:22.915Z,100200.91
2022-07-29T23:23:24.863Z,100191.38
2022-07-29T23:26:30.313Z,100188.81
2022-07-29T23:29:36.648Z,100191.41
2022-07-29T23:32:39.179Z,100198.88
2022-07-29T23:35:41.115Z,100186.94
2022-07-29T23:38:42.891Z,100181.41
2022-07-29T23:41:44.819Z,100194.16
2022-07-29T23:44:46.626Z,100202.78
2022-07-29T23:47:48.640Z,100208.06
2022-07-29T23:50:50.592Z,100211.59
2022-07-29T23:53:54.411Z,100215.53
2022-07-29T23:56:57.917Z,100211.66
